Time;durP1;ratioP1;P1;durP2;ratioP2;P2;SDS_P1;SDS_P2;PMS_P1;PMS_P2;Temp;Humidity;BMP_temperature;BMP_pressure;BME280_temperature;BME280_humidity;BME280_pressure;Samples;Min_cycle;Max_cycle;Signal;HPM_P1;HPM_P2
2022/02/08 00:01:00;;;;;;;8.98;5.03;;;;;;;0.32;68.31;94178.03;5091487;28;20442;-68
2022/02/08 00:03:26;;;;;;;7.85;4.90;;;;;;;0.30;68.32;94171.34;5090610;28;20032;-68
2022/02/08 00:06:24;;;;;;;6.68;4.53;;;;;;;0.31;69.26;94163.59;5092112;28;20028;-68
2022/02/08 00:08:49;;;;;;;8.32;5.90;;;;;;;0.40;68.90;94172.50;5110103;27;20062;-68
2022/02/08 00:11:14;;;;;;;7.70;5.00;;;;;;;0.30;67.83;94156.81;5110390;28;20535;-67
2022/02/08 00:13:40;;;;;;;8.85;5.20;;;;;;;0.22;68.57;94153.84;5109219;28;20408;-68
2022/02/08 00:16:06;;;;;;;10.50;6.88;;;;;;;0.25;68.33;94158.78;5110816;28;20032;-68
2022/02/08 00:18:31;;;;;;;7.72;5.68;;;;;;;0.24;68.57;94148.69;5123460;27;20034;-68
2022/02/08 00:20:57;;;;;;;7.30;5.40;;;;;;;0.18;69.28;94149.81;5114051;27;20039;-67
2022/02/08 00:23:22;;;;;;;6.40;5.43;;;;;;;0.18;69.85;94168.53;5130939;27;20569;-67
2022/02/08 00:25:48;;;;;;;6.00;4.50;;;;;;;0.29;68.30;94162.84;5131153;27;20469;-67
2022/02/08 00:28:13;;;;;;;6.05;4.65;;;;;;;0.15;68.43;94167.88;5110680;27;20028;-67
2022/02/08 00:30:40;;;;;;;8.38;5.10;;;;;;;0.22;68.40;94166.63;5132380;27;20099;-68
2022/02/08 00:33:05;;;;;;;6.38;5.03;;;;;;;0.19;69.57;94162.50;5113863;27;20023;-67
2022/02/08 00:35:30;;;;;;;9.40;5.10;;;;;;;0.21;68.98;94162.44;5097006;27;20505;-67
2022/02/08 00:37:56;;;;;;;6.65;4.10;;;;;;;0.13;68.60;94169.69;5118646;27;20019;-67
2022/02/08 00:40:23;;;;;;;6.28;4.93;;;;;;;0.21;68.53;94168.38;5111758;28;20036;-68
2022/02/08 00:42:48;;;;;;;7.05;4.47;;;;;;;0.20;67.92;94176.94;5076689;28;20410;-67
2022/02/08 00:47:47;;;;;;;6.85;4.78;;;;;;;0.21;67.71;94173.47;5096123;27;20413;-67
2022/02/08 00:50:13;;;;;;;5.97;4.40;;;;;;;0.28;68.42;94163.78;5132041;27;20035;-67
2022/02/08 00:52:38;;;;;;;7.57;4.28;;;;;;;0.24;67.89;94175.03;5130800;27;20030;-68
2022/02/08 00:55:06;;;;;;;7.28;4.40;;;;;;;0.23;67.78;94170.84;5131906;27;20032;-68
2022/02/08 00:57:31;;;;;;;6.70;4.57;;;;;;;0.24;68.26;94182.72;5113371;28;20031;-68
2022/02/08 00:59:57;;;;;;;5.38;4.53;;;;;;;0.07;68.01;94175.09;5130391;27;20031;-68
2022/02/08 01:02:22;;;;;;;6.78;5.43;;;;;;;0.10;67.58;94188.53;5113565;28;20079;-67
2022/02/08 01:04:53;;;;;;;6.13;4.80;;;;;;;0.14;67.04;94184.09;5130490;27;20088;-67
2022/02/08 01:07:19;;;;;;;8.93;5.03;;;;;;;0.15;67.32;94181.47;5112215;28;20416;-67
2022/02/08 01:09:51;;;;;;;6.68;5.20;;;;;;;0.15;68.59;94193.41;5113411;28;20027;-67
2022/02/08 01:12:16;;;;;;;5.68;4.18;;;;;;;0.07;67.33;94190.44;5112691;28;20028;-68
2022/02/08 01:14:43;;;;;;;8.50;5.10;;;;;;;0.06;68.11;94186.25;5131612;27;20026;-67
2022/02/08 01:17:10;;;;;;;6.90;5.20;;;;;;;0.05;68.13;94182.84;5130514;28;20481;-67
2022/02/08 01:19:38;;;;;;;6.10;4.32;;;;;;;0.07;66.92;94195.53;5130306;27;20066;-67
2022/02/08 01:22:03;;;;;;;6.75;4.22;;;;;;;0.06;67.10;94186.25;5131624;27;20038;-67
2022/02/08 01:24:29;;;;;;;5.53;4.65;;;;;;;0.11;67.46;94192.75;5130345;27;20039;-67
2022/02/08 01:27:02;;;;;;;5.35;4.53;;;;;;;0.14;67.69;94191.75;5128383;28;20408;-67
2022/02/08 01:32:17;;;;;;;6.45;4.65;;;;;;;0.10;66.96;94205.59;5130497;28;20420;-68
2022/02/08 01:37:27;;;;;;;7.53;3.70;;;;;;;0.01;66.87;94209.47;5111144;28;20600;-67
2022/02/08 01:40:11;;;;;;;5.30;3.92;;;;;;;-0.07;66.80;94204.72;5093735;28;20019;-67
2022/02/08 01:42:55;;;;;;;6.18;3.92;;;;;;;-0.07;67.18;94194.53;5095656;28;20035;-67
2022/02/08 01:50:34;;;;;;;7.43;4.07;;;;;;;0.07;66.92;94209.13;5084778;28;20056;-67
2022/02/08 01:53:00;;;;;;;6.57;4.28;;;;;;;0.04;66.39;94211.03;5115327;28;20035;-67
2022/02/08 01:55:26;;;;;;;6.20;4.05;;;;;;;0.00;66.49;94207.81;5131238;27;20118;-67
2022/02/08 01:57:51;;;;;;;6.97;4.60;;;;;;;-0.03;66.61;94225.81;5116905;27;20401;-67
2022/02/08 02:00:17;;;;;;;6.45;4.65;;;;;;;-0.19;66.63;94215.59;5134793;27;20037;-67
2022/02/08 02:02:43;;;;;;;6.70;4.68;;;;;;;-0.08;66.59;94223.53;5115117;27;20041;-68
2022/02/08 02:05:08;;;;;;;6.07;4.35;;;;;;;0.01;67.10;94226.50;5116653;27;20031;-67
2022/02/08 02:07:34;;;;;;;9.07;5.15;;;;;;;0.05;66.76;94223.69;5135108;27;20516;-67
2022/02/08 02:09:59;;;;;;;6.10;4.95;;;;;;;-0.03;66.41;94228.38;5134945;27;20055;-67
2022/02/08 02:12:25;;;;;;;6.30;5.07;;;;;;;-0.04;66.69;94219.91;5131819;27;20080;-67
2022/02/08 02:14:50;;;;;;;6.57;5.18;;;;;;;-0.08;66.26;94225.25;5134877;27;20027;-67
2022/02/08 02:17:17;;;;;;;7.32;5.03;;;;;;;-0.11;66.18;94225.38;5099525;27;20027;-67
2022/02/08 02:19:42;;;;;;;6.53;4.93;;;;;;;-0.01;66.53;94234.25;5133060;27;20031;-67
2022/02/08 02:22:08;;;;;;;6.13;4.85;;;;;;;-0.11;66.37;94243.25;5075658;28;20216;-67
2022/02/08 02:24:35;;;;;;;7.32;4.68;;;;;;;-0.17;66.48;94229.06;5092555;28;20128;-67
2022/02/08 02:27:00;;;;;;;6.70;4.57;;;;;;;-0.10;65.95;94243.19;5075505;28;20028;-67
2022/02/08 02:29:27;;;;;;;6.05;4.90;;;;;;;-0.11;66.62;94244.09;5109427;28;20028;-67
2022/02/08 02:31:52;;;;;;;7.03;5.53;;;;;;;-0.18;66.68;94229.16;5109660;28;20078;-67
2022/02/08 02:34:19;;;;;;;6.80;5.13;;;;;;;-0.22;66.31;94248.94;5092713;28;20485;-67
2022/02/08 02:36:44;;;;;;;6.88;5.13;;;;;;;-0.31;66.16;94241.69;5092560;28;20035;-67
2022/02/08 02:39:11;;;;;;;6.78;5.13;;;;;;;-0.27;67.06;94245.78;5092160;28;20032;-68
2022/02/08 02:41:40;;;;;;;6.28;5.22;;;;;;;-0.20;68.06;94254.75;5092321;28;20036;-68
2022/02/08 02:44:06;;;;;;;8.65;5.25;;;;;;;-0.23;66.75;94260.84;5092799;27;20132;-68
2022/02/08 02:46:32;;;;;;;7.30;5.13;;;;;;;-0.33;66.96;94269.06;5133266;27;20031;-67
2022/02/08 02:48:57;;;;;;;7.38;5.05;;;;;;;-0.30;66.83;94263.78;5132975;27;20092;-67
2022/02/08 02:51:24;;;;;;;7.38;5.60;;;;;;;-0.26;66.93;94291.63;5132929;27;20042;-67
2022/02/08 02:53:49;;;;;;;7.30;5.30;;;;;;;-0.38;67.14;94269.28;5132089;27;20030;-67
2022/02/08 02:56:15;;;;;;;7.55;5.30;;;;;;;-0.36;67.27;94279.38;5132920;27;20307;-67
2022/02/08 02:58:40;;;;;;;8.00;5.82;;;;;;;-0.32;67.52;94280.91;5132701;27;20493;-67
2022/02/08 03:20:04;;;;;;;6.38;5.32;;;;;;;-0.36;66.63;94299.81;5132485;27;20060;-67
2022/02/08 03:22:30;;;;;;;7.32;5.25;;;;;;;-0.30;66.31;94315.66;5129786;27;21427;-68
2022/02/08 03:24:55;;;;;;;8.75;5.20;;;;;;;-0.35;66.98;94307.41;5077838;28;20055;-67
2022/02/08 03:27:20;;;;;;;7.20;5.10;;;;;;;-0.47;66.42;94303.72;5077869;28;20016;-67
2022/02/08 03:29:46;;;;;;;9.70;6.40;;;;;;;-0.55;66.41;94294.78;5111660;28;20409;-67
2022/02/08 03:32:13;;;;;;;7.28;5.20;;;;;;;-0.41;66.95;94317.09;5103776;27;20034;-67
2022/02/08 03:34:39;;;;;;;6.68;5.32;;;;;;;-0.42;67.40;94311.13;5115216;27;20063;-67
2022/02/08 03:37:04;;;;;;;7.13;5.07;;;;;;;-0.31;66.92;94315.72;5132109;27;20034;-67
2022/02/08 03:39:39;;;;;;;7.22;4.50;;;;;;;-0.33;65.98;94313.28;5133190;27;20498;-67
2022/02/08 03:42:14;;;;;;;6.60;5.00;;;;;;;-0.28;66.69;94318.13;5129398;27;20034;-67
2022/02/08 03:44:44;;;;;;;5.63;4.55;;;;;;;-0.32;66.39;94314.09;5112484;28;20031;-68
2022/02/08 03:47:09;;;;;;;5.30;4.63;;;;;;;-0.34;66.58;94318.44;5112579;28;20043;-68
2022/02/08 03:49:35;;;;;;;5.40;4.10;;;;;;;-0.46;66.66;94314.75;5111298;28;20031;-67
2022/02/08 03:52:04;;;;;;;5.00;4.13;;;;;;;-0.43;66.54;94314.59;5112399;28;20498;-67
2022/02/08 03:54:30;;;;;;;8.48;5.30;;;;;;;-0.34;66.10;94320.97;5112365;28;20020;-67
2022/02/08 03:56:56;;;;;;;7.15;5.13;;;;;;;-0.33;66.60;94315.00;5105255;27;20420;-67
2022/02/08 03:59:21;;;;;;;6.07;5.28;;;;;;;-0.35;66.25;94320.16;5132751;27;20481;-67
2022/02/08 04:07:03;;;;;;;9.40;5.60;;;;;;;-0.37;66.31;94331.34;5111286;28;20081;-67
2022/02/08 04:09:28;;;;;;;7.70;5.38;;;;;;;-0.51;67.12;94325.16;5110968;28;20032;-67
2022/02/08 04:12:01;;;;;;;7.30;4.75;;;;;;;-0.69;67.23;94321.78;5113394;27;20024;-67
2022/02/08 04:17:00;;;;;;;7.45;4.97;;;;;;;-0.55;67.05;94344.09;5112465;28;20035;-67
2022/02/08 04:33:30;;;;;;;4.95;4.28;;;;;;;-0.38;66.18;94375.66;5130177;27;20091;-67
2022/02/08 04:41:16;;;;;;;5.15;4.05;;;;;;;-0.25;65.57;94381.84;5122512;27;20379;-67
2022/02/08 04:44:10;;;;;;;7.72;6.45;;;;;;;-0.33;65.55;94378.81;5095884;28;20031;-67
2022/02/08 04:46:48;;;;;;;5.93;4.47;;;;;;;-0.40;65.75;94385.09;5112012;28;20417;-67
2022/02/08 04:49:14;;;;;;;7.82;5.00;;;;;;;-0.35;65.96;94394.19;5111843;27;20062;-67
2022/02/08 04:51:45;;;;;;;12.00;8.52;;;;;;;-0.31;65.65;94402.53;5132425;27;20030;-67
2022/02/08 05:34:49;;;;;;;5.90;4.13;;;;;;;-0.29;64.15;94450.06;5116141;27;20031;-67
2022/02/08 05:45:05;;;;;;;6.78;3.97;;;;;;;-0.28;63.35;94482.38;5113947;27;20485;-67
2022/02/08 05:47:31;;;;;;;5.13;3.85;;;;;;;-0.37;63.04;94485.31;5114994;28;20080;-67
2022/02/08 05:52:51;;;;;;;5.97;4.65;;;;;;;-0.31;62.82;94492.69;5106938;27;20039;-67
2022/02/08 05:55:17;;;;;;;5.03;3.72;;;;;;;-0.29;62.55;94511.31;5114557;27;20036;-67
2022/02/08 05:57:42;;;;;;;6.85;4.40;;;;;;;-0.34;63.19;94512.44;5133986;27;20389;-67
2022/02/08 06:00:09;;;;;;;7.95;4.43;;;;;;;-0.44;63.33;94522.25;5132940;27;20561;-67
2022/02/08 06:02:35;;;;;;;7.47;4.80;;;;;;;-0.36;63.32;94543.16;5116466;27;20083;-67
2022/02/08 06:05:00;;;;;;;10.70;6.40;;;;;;;-0.40;62.89;94551.00;5099611;27;20031;-67
2022/02/08 06:07:26;;;;;;;11.57;7.60;;;;;;;-0.39;63.07;94567.97;5129202;27;20024;-67
2022/02/08 06:09:55;;;;;;;7.07;4.63;;;;;;;-0.40;62.81;94563.75;5096211;28;20027;-67
2022/02/08 06:12:25;;;;;;;6.13;3.97;;;;;;;-0.32;63.21;94567.63;5114340;27;20024;-67
2022/02/08 06:15:04;;;;;;;14.75;6.85;;;;;;;-0.40;62.46;94568.88;5110011;28;20028;-67
2022/02/08 06:17:30;;;;;;;7.43;4.53;;;;;;;-0.33;62.43;94571.09;5114152;27;20035;-67
2022/02/08 06:19:56;;;;;;;7.20;3.80;;;;;;;-0.32;62.58;94577.00;5114765;27;20040;-67
2022/02/08 06:22:22;;;;;;;9.07;6.13;;;;;;;-0.35;62.39;94584.81;5126357;27;20031;-68
2022/02/08 06:24:48;;;;;;;8.85;5.57;;;;;;;-0.34;62.33;94573.69;5131942;27;20055;-67
2022/02/08 06:27:14;;;;;;;5.90;4.50;;;;;;;-0.42;63.05;94578.31;5094450;28;20067;-67
2022/02/08 06:29:39;;;;;;;6.78;4.40;;;;;;;-0.38;62.73;94587.50;5093569;28;20060;-67
2022/02/08 06:32:05;;;;;;;7.47;5.28;;;;;;;-0.32;62.42;94600.00;5077771;28;20031;-67
2022/02/08 06:34:32;;;;;;;5.57;4.13;;;;;;;-0.29;61.58;94594.75;5113536;27;20059;-66
2022/02/08 06:37:05;;;;;;;7.72;4.70;;;;;;;-0.39;61.29;94602.00;5095659;28;20111;-67
2022/02/08 06:39:35;;;;;;;10.05;4.63;;;;;;;-0.28;61.85;94610.00;5115128;27;20097;-67
2022/02/08 06:42:00;;;;;;;6.35;4.20;;;;;;;-0.28;61.64;94616.81;5113602;27;20404;-66
2022/02/08 06:44:25;;;;;;;9.50;5.93;;;;;;;-0.21;61.11;94627.59;5120564;27;20031;-66
2022/02/08 06:46:51;;;;;;;9.23;7.18;;;;;;;-0.17;61.32;94624.84;5113377;28;20032;-66
2022/02/08 06:49:17;;;;;;;9.52;7.78;;;;;;;-0.14;62.01;94637.50;5112330;27;20087;-67
2022/02/08 06:51:42;;;;;;;16.83;9.80;;;;;;;-0.08;62.27;94642.34;5110541;28;20042;-67
2022/02/08 06:54:08;;;;;;;32.20;20.00;;;;;;;-0.04;62.01;94648.13;5123457;27;20023;-67
2022/02/08 06:56:33;;;;;;;9.27;6.50;;;;;;;-0.15;60.95;94657.97;5116051;27;20038;-67
2022/02/08 06:59:06;;;;;;;24.77;13.63;;;;;;;-0.13;61.40;94664.69;5116441;27;20031;-67
2022/02/08 07:01:33;;;;;;;54.45;27.50;;;;;;;-0.20;61.05;94675.22;5119389;27;20027;-67
2022/02/08 07:04:00;;;;;;;41.67;20.95;;;;;;;-0.14;61.57;94688.56;5077502;28;20465;-68
2022/02/08 07:06:26;;;;;;;36.67;16.77;;;;;;;-0.05;62.10;94687.34;5095127;28;20035;-67
2022/02/08 07:08:51;;;;;;;93.50;31.45;;;;;;;-0.06;61.10;94681.38;5112714;28;20413;-67
2022/02/08 07:11:17;;;;;;;30.13;14.05;;;;;;;-0.12;60.36;94685.94;5077930;28;20046;-67
2022/02/08 07:13:44;;;;;;;55.08;21.85;;;;;;;-0.09;60.64;94689.19;5105086;27;20432;-67
2022/02/08 07:16:11;;;;;;;20.75;10.90;;;;;;;-0.14;60.98;94695.38;5111601;27;20036;-67
2022/02/08 07:18:36;;;;;;;18.75;10.52;;;;;;;-0.13;61.30;94695.31;5102196;28;20140;-67
2022/02/08 07:21:02;;;;;;;20.70;11.73;;;;;;;-0.14;61.58;94686.00;5112872;28;20478;-67
2022/02/08 07:23:28;;;;;;;20.20;11.77;;;;;;;-0.13;60.90;94674.91;5119560;27;20040;-67
2022/02/08 07:25:54;;;;;;;19.23;11.55;;;;;;;-0.09;61.11;94690.91;5107308;28;20512;-67
2022/02/08 07:28:20;;;;;;;12.73;8.00;;;;;;;-0.05;61.01;94698.38;5121300;27;20031;-68
2022/02/08 07:30:45;;;;;;;9.65;6.72;;;;;;;-0.14;61.67;94698.78;5133260;27;20023;-67
2022/02/08 07:33:11;;;;;;;12.70;9.00;;;;;;;-0.15;62.12;94707.31;5115037;27;20042;-67
2022/02/08 07:38:39;;;;;;;7.63;5.28;;;;;;;-0.16;61.42;94705.66;5089411;28;20206;-67
2022/02/08 07:43:30;;;;;;;7.55;5.00;;;;;;;-0.08;61.79;94710.47;5106293;28;20023;-67
2022/02/08 07:45:56;;;;;;;6.90;4.90;;;;;;;-0.02;61.91;94708.47;5104589;28;20042;-67
2022/02/08 07:48:23;;;;;;;7.50;4.95;;;;;;;-0.07;61.67;94702.72;5099597;28;20409;-68
2022/02/08 07:50:51;;;;;;;7.65;4.70;;;;;;;-0.10;61.19;94717.34;5110568;28;20027;-67
2022/02/08 07:53:16;;;;;;;7.43;4.40;;;;;;;-0.01;62.03;94727.16;5088877;28;20104;-67
2022/02/08 07:55:42;;;;;;;10.82;6.70;;;;;;;0.05;62.36;94724.34;5095650;28;20046;-67
2022/02/08 07:58:07;;;;;;;12.70;7.75;;;;;;;-0.04;61.47;94733.22;5119027;27;20028;-67
2022/02/08 08:00:33;;;;;;;16.38;9.40;;;;;;;0.01;61.83;94738.16;5114083;27;20035;-67
2022/02/08 08:02:58;;;;;;;68.25;29.13;;;;;;;0.03;61.96;94748.28;5118152;27;20019;-67
2022/02/08 08:05:25;;;;;;;28.50;14.07;;;;;;;-0.04;61.96;94751.09;5093819;28;20076;-67
2022/02/08 08:07:51;;;;;;;22.98;12.82;;;;;;;0.00;61.89;94751.81;5116429;27;20064;-67
2022/02/08 08:10:22;;;;;;;56.47;30.13;;;;;;;0.01;61.24;94752.66;5126126;27;20027;-67
2022/02/08 08:12:50;;;;;;;17.60;11.43;;;;;;;0.02;60.73;94765.34;5108128;27;20023;-67
2022/02/08 08:18:01;;;;;;;12.70;8.18;;;;;;;0.07;60.94;94777.94;5081202;28;20034;-67
2022/02/08 08:20:27;;;;;;;40.78;21.15;;;;;;;0.05;60.96;94772.88;5115624;27;20095;-67
2022/02/08 08:22:52;;;;;;;20.10;12.05;;;;;;;0.10;61.23;94777.78;5124878;27;20442;-67
2022/02/08 08:25:17;;;;;;;10.48;7.10;;;;;;;0.12;61.12;94789.59;5128445;27;20055;-68
2022/02/08 08:27:43;;;;;;;8.98;6.05;;;;;;;0.21;61.04;94790.94;5094694;28;20031;-67
2022/02/08 08:30:09;;;;;;;10.57;5.72;;;;;;;0.11;60.33;94761.56;5110244;28;20030;-67
2022/02/08 08:32:39;;;;;;;13.73;9.48;;;;;;;0.31;61.37;94791.38;5110828;28;20031;-68
2022/02/08 08:35:07;;;;;;;14.07;9.18;;;;;;;0.35;61.59;94793.72;5130848;27;20027;-67
2022/02/08 08:37:37;;;;;;;16.73;9.63;;;;;;;0.38;61.96;94793.59;5092884;27;20497;-68
2022/02/08 08:40:12;;;;;;;11.23;6.70;;;;;;;0.26;60.81;94775.41;5111914;27;20031;-67
2022/02/08 08:42:49;;;;;;;12.15;6.97;;;;;;;0.32;60.10;94804.09;5110249;27;20027;-67
2022/02/08 08:53:13;;;;;;;44.45;21.77;;;;;;;0.26;60.19;94809.47;5110395;28;20055;-68
2022/02/08 08:55:38;;;;;;;13.80;8.48;;;;;;;0.27;60.01;94816.22;5108278;28;20035;-67
2022/02/08 08:58:04;;;;;;;13.85;8.07;;;;;;;0.19;59.72;94816.53;5111759;27;20024;-76
2022/02/08 09:00:29;;;;;;;13.95;7.30;;;;;;;0.21;59.90;94814.75;5098316;27;20038;-68
2022/02/08 09:02:55;;;;;;;10.93;6.75;;;;;;;0.10;59.93;94827.16;5110514;28;20096;-68
2022/02/08 09:05:21;;;;;;;17.85;10.77;;;;;;;0.25;60.32;94828.22;5095727;27;20035;-68
2022/02/08 09:07:46;;;;;;;12.88;8.02;;;;;;;0.29;60.71;94826.41;5093592;27;20031;-68
2022/02/08 09:10:16;;;;;;;14.57;8.52;;;;;;;0.23;59.80;94832.59;5105858;28;20040;-68
2022/02/08 09:15:34;;;;;;;8.77;6.20;;;;;;;0.24;59.77;94841.91;5089201;28;20193;-68
2022/02/08 09:30:50;;;;;;;22.55;11.52;;;;;;;0.49;59.38;94848.53;5113599;28;20048;-68
2022/02/08 09:33:16;;;;;;;20.05;11.45;;;;;;;0.60;60.25;94854.84;5110008;28;20032;-67
2022/02/08 09:35:41;;;;;;;14.40;8.13;;;;;;;0.69;59.63;94847.69;5121316;28;20778;-68
2022/02/08 09:38:06;;;;;;;25.63;14.35;;;;;;;0.70;59.83;94849.31;5096824;28;20054;-68
2022/02/08 09:40:32;;;;;;;10.13;6.72;;;;;;;0.69;58.15;94845.94;5107787;28;20031;-67
2022/02/08 09:42:59;;;;;;;9.02;5.45;;;;;;;0.76;59.06;94838.84;5112192;28;20485;-68
2022/02/08 09:45:25;;;;;;;7.60;4.75;;;;;;;0.80;58.43;94850.59;5113269;28;20085;-68
2022/02/08 09:48:02;;;;;;;6.97;4.57;;;;;;;0.82;59.23;94846.25;5092336;28;20012;-69
2022/02/08 09:50:30;;;;;;;8.10;5.22;;;;;;;0.86;59.02;94845.19;5091738;28;20031;-67
2022/02/08 09:52:59;;;;;;;14.90;9.98;;;;;;;0.94;60.52;94844.88;5092376;28;20301;-69
2022/02/08 09:55:26;;;;;;;14.15;10.00;;;;;;;1.00;59.08;94842.03;5098877;28;20027;-67
2022/02/08 09:57:51;;;;;;;17.48;9.20;;;;;;;1.10;58.95;94849.22;5129770;28;20023;-68
2022/02/08 10:00:17;;;;;;;11.73;6.60;;;;;;;1.10;58.81;94853.50;5123516;27;20032;-67
2022/02/08 10:02:43;;;;;;;11.68;7.47;;;;;;;1.12;59.19;94844.06;5109723;28;20103;-69
2022/02/08 10:05:08;;;;;;;8.35;6.88;;;;;;;1.20;58.38;94851.34;5107499;28;20032;-68
2022/02/08 10:07:35;;;;;;;8.73;5.80;;;;;;;1.21;58.16;94840.22;5108207;28;20042;-68
2022/02/08 10:10:02;;;;;;;8.77;7.07;;;;;;;1.32;59.62;94843.97;5121703;28;20039;-68
2022/02/08 10:24:01;;;;;;;15.20;8.40;;;;;;;1.55;53.75;94853.13;5109093;28;20126;-68
2022/02/08 10:29:10;;;;;;;10.25;5.05;;;;;;;1.58;51.78;94848.75;5098126;27;20040;-68
2022/02/08 10:40:06;;;;;;;6.25;3.33;;;;;;;1.55;51.81;94845.44;5128688;27;20045;-67
2022/02/08 10:42:31;;;;;;;9.07;4.82;;;;;;;1.63;52.26;94852.75;5107157;27;20023;-67
2022/02/08 10:44:57;;;;;;;13.65;6.68;;;;;;;1.63;51.80;94845.09;5094641;27;20125;-68
2022/02/08 10:47:40;;;;;;;9.52;4.85;;;;;;;1.70;52.29;94840.47;5112526;28;20032;-69
2022/02/08 10:50:08;;;;;;;14.77;7.18;;;;;;;1.77;51.71;94842.69;5095996;27;20046;-67
2022/02/08 10:52:34;;;;;;;12.00;5.68;;;;;;;1.77;51.61;94849.56;5118352;27;20028;-70
2022/02/08 10:55:09;;;;;;;13.07;7.40;;;;;;;1.86;51.61;94861.09;5113174;27;20035;-67
2022/02/08 10:57:46;;;;;;;13.75;8.75;;;;;;;1.91;52.50;94852.28;5094240;28;20026;-68
2022/02/08 11:00:12;;;;;;;11.32;6.90;;;;;;;1.87;53.69;94839.69;5112750;27;20036;-68
2022/02/08 11:02:45;;;;;;;14.48;8.38;;;;;;;1.86;50.81;94845.72;5111177;28;20026;-68
2022/02/08 11:05:21;;;;;;;10.63;5.47;;;;;;;1.97;53.11;94849.41;5114743;27;20034;-67
2022/02/08 11:10:54;;;;;;;12.65;6.60;;;;;;;2.00;51.84;94851.81;5102492;27;20071;-67
2022/02/08 11:26:29;;;;;;;11.70;5.13;;;;;;;2.14;51.27;94853.72;5107076;27;20043;-67
2022/02/08 11:28:55;;;;;;;8.88;5.38;;;;;;;2.10;50.15;94861.63;5110398;27;20055;-67
2022/02/08 11:31:27;;;;;;;16.00;9.98;;;;;;;2.07;51.14;94857.50;5094270;28;20028;-67
2022/02/08 11:53:33;;;;;;;8.15;5.60;;;;;;;1.95;56.84;94873.44;5094234;28;20694;-67
2022/02/08 12:12:34;;;;;;;7.75;5.63;;;;;;;1.61;57.16;94880.16;5094605;28;20823;-67
2022/02/08 12:48:46;;;;;;;8.43;4.78;;;;;;;2.04;55.09;94885.84;5131353;27;20023;-68
2022/02/08 12:57:04;;;;;;;5.03;3.30;;;;;;;1.93;49.18;94896.59;5126768;27;20151;-67
2022/02/08 14:01:53;;;;;;;9.77;4.78;;;;;;;2.34;47.42;94964.69;5099350;28;20042;-66
2022/02/08 14:07:30;;;;;;;15.43;5.32;;;;;;;2.34;46.68;94972.38;5135170;27;20103;-66
2022/02/08 14:10:00;;;;;;;16.10;9.52;;;;;;;2.42;48.14;94980.53;5133589;27;20075;-66
2022/02/08 14:17:39;;;;;;;32.53;9.98;;;;;;;2.45;48.58;94985.53;5133989;27;20485;-67
2022/02/08 14:25:31;;;;;;;19.55;7.70;;;;;;;2.45;48.03;94988.09;5134722;27;20055;-67
2022/02/08 14:31:13;;;;;;;22.73;9.23;;;;;;;2.54;48.12;95005.63;5119233;27;20184;-66
2022/02/08 14:33:48;;;;;;;26.30;12.65;;;;;;;2.54;48.68;95012.50;5134358;27;20425;-66
2022/02/08 15:08:39;;;;;;;46.70;26.17;;;;;;;2.53;50.10;95065.50;5105132;27;20524;-69
2022/02/08 15:11:08;;;;;;;36.28;18.42;;;;;;;2.49;51.37;95069.13;5109839;27;20185;-68
2022/02/08 15:13:35;;;;;;;22.45;11.80;;;;;;;2.44;52.31;95064.19;5119905;27;20405;-68
2022/02/08 15:18:28;;;;;;;14.32;8.55;;;;;;;2.29;53.16;95082.06;5114372;27;20030;-69
2022/02/08 15:20:54;;;;;;;14.02;8.77;;;;;;;2.33;52.86;95091.25;5113986;27;20032;-69
2022/02/08 15:23:21;;;;;;;12.30;7.60;;;;;;;2.31;52.44;95088.75;5097981;28;20077;-69
2022/02/08 15:25:47;;;;;;;11.95;6.65;;;;;;;2.15;52.32;95093.75;5116703;27;20088;-68
2022/02/08 15:28:13;;;;;;;10.13;7.07;;;;;;;2.13;51.87;95103.25;5089279;28;20471;-68
2022/02/08 15:30:39;;;;;;;17.38;9.30;;;;;;;2.15;52.39;95109.13;5098354;28;20032;-68
2022/02/08 15:33:08;;;;;;;18.77;12.88;;;;;;;2.11;53.23;95106.78;5104306;27;20043;-68
2022/02/08 15:35:34;;;;;;;16.48;9.48;;;;;;;2.04;53.07;95121.59;5094259;28;20031;-68
2022/02/08 15:37:59;;;;;;;16.85;9.10;;;;;;;2.04;52.60;95121.59;5107132;27;20039;-69
2022/02/08 15:40:25;;;;;;;17.92;10.68;;;;;;;2.13;53.71;95128.88;5095679;27;20023;-68
2022/02/08 15:42:51;;;;;;;15.77;10.82;;;;;;;2.05;52.92;95132.69;5090212;28;20093;-68
2022/02/08 15:48:12;;;;;;;18.02;11.65;;;;;;;2.05;52.40;95146.31;5108717;27;20036;-68
2022/02/08 15:58:19;;;;;;;20.48;13.75;;;;;;;2.10;55.09;95154.66;5110845;27;19916;-68
2022/02/08 16:09:10;;;;;;;33.58;15.05;;;;;;;2.06;54.16;95168.47;5112644;27;20034;-68
2022/02/08 16:14:12;;;;;;;19.30;9.00;;;;;;;2.02;53.17;95174.66;5115591;27;20034;-67
2022/02/08 16:17:04;;;;;;;12.85;7.35;;;;;;;2.06;53.96;95191.53;5107343;27;20031;-68
2022/02/08 16:56:54;;;;;;;82.97;40.95;;;;;;;1.93;55.27;95254.50;5096799;27;20043;-68
2022/02/08 16:59:26;;;;;;;40.58;22.15;;;;;;;1.87;54.09;95258.16;5089703;27;20027;-69
2022/02/08 17:01:53;;;;;;;67.55;34.80;;;;;;;1.87;53.05;95255.59;5108674;27;20054;-68
2022/02/08 17:04:18;;;;;;;47.28;26.05;;;;;;;1.92;53.56;95265.63;5108181;28;20116;-68
2022/02/08 17:06:43;;;;;;;82.65;38.22;;;;;;;1.95;53.35;95268.03;5121465;27;20443;-69
2022/02/08 17:09:14;;;;;;;58.22;29.17;;;;;;;1.61;53.16;95228.47;5110438;28;20451;-71
2022/02/08 17:19:29;;;;;;;56.90;27.67;;;;;;;1.95;54.50;95285.97;5091720;28;20032;-67
2022/02/08 17:37:28;;;;;;;71.72;30.48;;;;;;;1.90;52.78;95305.88;5122660;27;20095;-68
2022/02/08 17:46:19;;;;;;;28.90;14.50;;;;;;;1.71;51.43;95316.84;5104949;27;20191;-68
2022/02/08 17:48:45;;;;;;;20.42;13.10;;;;;;;1.71;52.10;95316.84;5113701;27;20525;-68
2022/02/08 17:51:11;;;;;;;14.63;9.27;;;;;;;1.72;50.61;95328.75;5104260;28;20047;-68
2022/02/08 17:53:36;;;;;;;13.45;8.77;;;;;;;1.72;51.54;95333.03;5090084;28;20023;-68
2022/02/08 17:56:03;;;;;;;15.90;11.70;;;;;;;1.66;52.01;95329.00;5090262;28;20421;-68
2022/02/08 17:58:28;;;;;;;24.55;16.58;;;;;;;1.69;51.46;95336.56;5105489;28;20496;-68
2022/02/08 18:00:55;;;;;;;28.20;18.67;;;;;;;1.74;52.53;95350.03;5100171;28;20031;-68
2022/02/08 18:03:21;;;;;;;25.70;14.32;;;;;;;1.72;52.35;95349.25;5112247;28;20035;-68
2022/02/08 18:05:46;;;;;;;30.85;15.43;;;;;;;1.69;54.90;95354.50;5091340;28;20023;-68
2022/02/08 18:08:13;;;;;;;32.25;16.98;;;;;;;1.71;53.32;95355.28;5112078;27;20027;-68
2022/02/08 18:10:39;;;;;;;32.13;14.93;;;;;;;1.70;51.65;95357.88;5114998;27;20028;-69
2022/02/08 18:13:10;;;;;;;42.05;18.48;;;;;;;1.70;52.52;95363.00;5112883;28;20047;-68
2022/02/08 18:15:36;;;;;;;33.38;14.85;;;;;;;1.64;51.25;95369.19;5106654;27;20028;-68
2022/02/08 18:18:07;;;;;;;20.30;9.68;;;;;;;1.60;51.08;95362.53;5108110;27;20078;-67
2022/02/08 18:20:45;;;;;;;17.95;9.75;;;;;;;1.63;50.25;95365.00;5115617;27;20168;-68
2022/02/08 19:19:39;;;;;;;7.07;4.07;;;;;;;1.23;49.79;95404.91;5103915;28;20469;-67
2022/02/08 19:22:04;;;;;;;7.45;4.47;;;;;;;1.22;49.45;95405.78;5101586;27;20036;-68
2022/02/08 19:24:30;;;;;;;8.00;4.65;;;;;;;1.22;51.02;95415.19;5107407;27;20040;-67
2022/02/08 19:26:57;;;;;;;12.98;7.03;;;;;;;1.05;50.70;95403.84;5105173;27;20032;-67
2022/02/08 19:29:23;;;;;;;6.43;4.13;;;;;;;1.09;50.13;95412.25;5112956;27;20039;-67
2022/02/08 19:31:49;;;;;;;13.57;5.68;;;;;;;1.08;50.63;95423.38;5108888;27;20040;-67
2022/02/08 19:34:14;;;;;;;11.50;7.40;;;;;;;1.15;51.25;95429.94;5098244;27;20056;-67
2022/02/08 19:36:42;;;;;;;10.90;5.45;;;;;;;1.22;50.48;95436.50;5107510;27;20085;-67
2022/02/08 19:39:07;;;;;;;10.48;6.45;;;;;;;1.25;51.42;95444.06;5110697;27;20031;-67
2022/02/08 19:41:33;;;;;;;8.85;6.78;;;;;;;1.27;51.25;95447.41;5113001;27;20040;-67
2022/02/08 19:43:59;;;;;;;11.80;5.53;;;;;;;1.22;51.19;95445.91;5088924;27;20035;-68
2022/02/08 19:46:26;;;;;;;17.10;7.50;;;;;;;1.25;51.18;95456.88;5094853;28;20054;-68
2022/02/08 19:48:51;;;;;;;11.18;8.35;;;;;;;1.26;51.17;95448.31;5089289;28;20020;-67
2022/02/08 19:51:17;;;;;;;10.38;4.55;;;;;;;1.19;50.85;95446.84;5113288;27;20512;-68
2022/02/08 19:53:44;;;;;;;9.63;5.80;;;;;;;1.26;50.64;95452.59;5105975;27;20073;-68
2022/02/08 19:58:46;;;;;;;12.40;7.45;;;;;;;1.19;50.95;95446.84;5096711;28;20031;-67
2022/02/08 20:01:16;;;;;;;7.90;5.82;;;;;;;1.26;52.17;95448.31;5068905;28;20031;-67
2022/02/08 20:04:04;;;;;;;14.10;9.43;;;;;;;1.26;52.13;95447.50;5101238;28;20032;-67
2022/02/08 20:06:30;;;;;;;10.27;5.28;;;;;;;1.14;51.76;95464.09;5111822;27;20039;-68
2022/02/08 20:08:56;;;;;;;14.43;7.43;;;;;;;1.14;51.85;95453.84;5076866;28;20088;-67
2022/02/08 20:11:22;;;;;;;12.98;6.70;;;;;;;1.17;52.16;95469.13;5117825;27;20110;-67
2022/02/08 20:13:52;;;;;;;11.82;6.50;;;;;;;1.21;52.26;95462.16;5100630;28;20046;-67